createdAt,value
2022-09-30T00:00:15.531Z,21.4
2022-09-30T00:01:59.236Z,21.4
2022-09-30T00:03:43.078Z,21.4
2022-09-30T00:05:26.631Z,21.4
2022-09-30T00:07:10.450Z,21.4
2022-09-30T00:08:54.192Z,21.4
2022-09-30T00:10:37.902Z,21.4
2022-09-30T00:12:21.567Z,21.4
2022-09-30T00:14:05.148Z,21.4
2022-09-30T00:15:48.958Z,21.3
2022-09-30T00:17:32.561Z,21.3
2022-09-30T00:19:16.270Z,21.3
2022-09-30T00:20:59.970Z,21.4
2022-09-30T00:22:43.695Z,21.4
2022-09-30T00:24:27.470Z,21.3
2022-09-30T00:26:11.113Z,21.3
2022-09-30T00:27:54.774Z,21.3
2022-09-30T00:29:38.484Z,21.3
2022-09-30T00:31:22.230Z,21.4
2022-09-30T00:33:05.879Z,21.3
2022-09-30T00:34:49.573Z,21.3
2022-09-30T00:36:33.318Z,21.3
2022-09-30T00:38:16.982Z,21.3
2022-09-30T00:40:00.725Z,21.4
2022-09-30T00:41:44.379Z,21.4
2022-09-30T00:43:28.128Z,21.3
2022-09-30T00:45:11.818Z,21.3
2022-09-30T00:46:55.493Z,21.3
2022-09-30T00:48:39.212Z,21.3
2022-09-30T00:50:22.894Z,21.3
2022-09-30T00:52:06.595Z,21.3
2022-09-30T00:53:50.318Z,21.3
2022-09-30T00:55:34.003Z,21.3
2022-09-30T00:57:17.724Z,21.3
2022-09-30T00:59:01.397Z,21.3
2022-09-30T01:00:45.102Z,21.3
2022-09-30T01:02:28.820Z,21.3
2022-09-30T01:04:12.556Z,21.3
2022-09-30T01:05:56.249Z,21.3
2022-09-30T01:07:39.941Z,21.3
2022-09-30T01:09:23.631Z,21.3
2022-09-30T01:11:07.327Z,21.3
2022-09-30T01:12:51.020Z,21.3
2022-09-30T01:14:34.728Z,21.3
2022-09-30T01:16:18.429Z,21.3
2022-09-30T01:18:02.139Z,21.3
2022-09-30T01:19:45.905Z,21.3
2022-09-30T01:21:29.554Z,21.3
2022-09-30T01:23:13.228Z,21.3
2022-09-30T01:24:56.938Z,21.3
2022-09-30T01:28:24.344Z,21.3
2022-09-30T01:30:08.046Z,21.3
2022-09-30T01:31:51.754Z,21.3
2022-09-30T01:33:35.475Z,21.3
2022-09-30T01:35:19.150Z,21.3
2022-09-30T01:37:02.847Z,21.3
2022-09-30T01:38:46.553Z,21.3
2022-09-30T01:40:30.255Z,21.3
2022-09-30T01:42:13.949Z,21.3
2022-09-30T01:43:57.654Z,21.3
2022-09-30T01:45:41.363Z,21.3
2022-09-30T01:47:25.050Z,21.3
2022-09-30T01:49:08.758Z,21.3
2022-09-30T01:50:52.469Z,21.3
2022-09-30T01:52:36.180Z,21.3
2022-09-30T01:54:19.868Z,21.3
2022-09-30T01:56:03.571Z,21.3
2022-09-30T01:57:47.286Z,21.3
2022-09-30T01:59:30.985Z,21.3
2022-09-30T02:01:14.704Z,21.3
2022-09-30T02:02:58.396Z,21.3
2022-09-30T02:04:42.078Z,21.3
2022-09-30T02:06:25.786Z,21.3
2022-09-30T02:08:09.480Z,21.3
2022-09-30T02:09:53.185Z,21.3
2022-09-30T02:11:36.888Z,21.3
2022-09-30T02:13:20.591Z,21.3
2022-09-30T02:15:04.288Z,21.3
2022-09-30T02:16:48.006Z,21.3
2022-09-30T02:18:31.692Z,21.3
2022-09-30T02:20:15.405Z,21.3
2022-09-30T02:21:59.091Z,21.3
2022-09-30T02:23:42.800Z,21.3
2022-09-30T02:25:26.513Z,21.3
2022-09-30T02:27:10.196Z,21.3
2022-09-30T02:28:53.933Z,21.3
2022-09-30T02:30:37.596Z,21.3
2022-09-30T02:32:21.303Z,21.3
2022-09-30T02:34:05.004Z,21.3
2022-09-30T02:35:48.722Z,21.3
2022-09-30T02:37:32.416Z,21.3
2022-09-30T02:39:16.111Z,21.3
2022-09-30T02:40:59.852Z,21.3
2022-09-30T02:42:43.520Z,21.3
2022-09-30T02:44:27.218Z,21.3
2022-09-30T02:46:10.930Z,21.3
2022-09-30T02:47:54.621Z,21.3
2022-09-30T02:49:38.345Z,21.3
2022-09-30T02:51:22.025Z,21.3
2022-09-30T02:53:05.729Z,21.3
2022-09-30T02:54:49.423Z,21.3
2022-09-30T02:56:33.129Z,21.3
2022-09-30T02:58:16.830Z,21.3
2022-09-30T03:00:00.607Z,21.3
2022-09-30T03:01:44.241Z,21.3
2022-09-30T03:03:27.934Z,21.3
2022-09-30T03:05:11.667Z,21.3
2022-09-30T03:06:55.343Z,21.3
2022-09-30T03:08:39.109Z,21.3
2022-09-30T03:10:22.741Z,21.3
2022-09-30T03:12:06.447Z,21.3
2022-09-30T03:13:50.147Z,21.3
2022-09-30T03:15:33.845Z,21.3
2022-09-30T03:17:17.550Z,21.3
2022-09-30T03:19:01.274Z,21.3
2022-09-30T03:20:44.951Z,21.3
2022-09-30T03:22:28.653Z,21.3
2022-09-30T03:24:12.358Z,21.3
2022-09-30T03:25:56.060Z,21.3
2022-09-30T03:27:39.763Z,21.3
2022-09-30T03:29:23.481Z,21.3
2022-09-30T03:31:07.177Z,21.3
2022-09-30T03:32:50.868Z,21.3
2022-09-30T03:34:34.576Z,21.3
2022-09-30T03:36:18.280Z,21.3
2022-09-30T03:38:01.984Z,21.3
2022-09-30T03:39:45.686Z,21.3
2022-09-30T03:41:29.445Z,21.3
2022-09-30T03:43:13.079Z,21.3
2022-09-30T03:44:56.785Z,21.3
2022-09-30T03:46:40.487Z,21.3
2022-09-30T03:48:24.194Z,21.3
2022-09-30T03:50:07.883Z,21.3
2022-09-30T03:51:51.589Z,21.3
2022-09-30T03:53:35.286Z,21.3
2022-09-30T03:55:19.000Z,21.3
2022-09-30T03:57:02.689Z,21.3
2022-09-30T03:58:46.397Z,21.2
2022-09-30T04:00:30.099Z,21.3
2022-09-30T04:02:13.798Z,21.3
2022-09-30T04:03:57.495Z,21.3
2022-09-30T04:05:41.198Z,21.3
2022-09-30T04:07:24.896Z,21.3
2022-09-30T04:09:08.600Z,21.3
2022-09-30T04:10:52.302Z,21.3
2022-09-30T04:12:35.993Z,21.2
2022-09-30T04:14:19.705Z,21.3
2022-09-30T04:16:03.405Z,21.3
2022-09-30T04:17:47.098Z,21.3
2022-09-30T04:19:30.809Z,21.3
2022-09-30T04:21:14.503Z,21.3
2022-09-30T04:22:58.212Z,21.3
2022-09-30T04:24:41.924Z,21.3
2022-09-30T04:26:25.621Z,21.3
2022-09-30T04:28:09.325Z,21.3
2022-09-30T04:29:53.023Z,21.3
2022-09-30T04:31:36.726Z,21.3
2022-09-30T04:33:20.476Z,21.2
2022-09-30T04:35:04.130Z,21.3
2022-09-30T04:36:47.826Z,21.3
2022-09-30T04:38:31.557Z,21.3
2022-09-30T04:40:15.247Z,21.3
2022-09-30T04:41:58.938Z,21.3
2022-09-30T04:43:42.639Z,21.3
2022-09-30T04:45:26.344Z,21.3
2022-09-30T04:47:10.083Z,21.3
2022-09-30T04:48:53.751Z,21.3
2022-09-30T04:50:37.457Z,21.3
2022-09-30T04:52:21.164Z,21.3
2022-09-30T04:54:04.857Z,21.3
2022-09-30T04:55:48.577Z,21.3
2022-09-30T04:57:32.275Z,21.3
2022-09-30T04:59:16.065Z,21.3
2022-09-30T05:00:59.665Z,21.3
2022-09-30T05:02:43.365Z,21.3
2022-09-30T05:04:27.092Z,21.3
2022-09-30T05:06:10.762Z,21.3
2022-09-30T05:07:54.511Z,21.3
2022-09-30T05:09:38.173Z,21.3
2022-09-30T05:11:21.948Z,21.3
2022-09-30T05:13:05.612Z,21.3
2022-09-30T05:14:49.279Z,21.3
2022-09-30T05:16:32.995Z,21.3
2022-09-30T05:18:16.685Z,21.3
2022-09-30T05:20:00.397Z,21.3
2022-09-30T05:21:44.093Z,21.3
2022-09-30T05:23:27.820Z,21.3
2022-09-30T05:25:11.487Z,21.3
2022-09-30T05:26:55.196Z,21.3
2022-09-30T05:28:38.900Z,21.3
2022-09-30T05:30:22.610Z,21.3
2022-09-30T05:32:06.309Z,21.3
2022-09-30T05:33:50.011Z,21.3
2022-09-30T05:35:33.754Z,21.3
2022-09-30T05:37:17.413Z,21.3
2022-09-30T05:39:01.116Z,21.3
2022-09-30T05:40:44.873Z,21.3
2022-09-30T05:42:28.524Z,21.3
2022-09-30T05:44:12.229Z,21.4
2022-09-30T05:45:55.942Z,21.4
2022-09-30T05:47:39.645Z,21.4
2022-09-30T05:49:23.355Z,21.4
2022-09-30T05:51:07.039Z,21.4
2022-09-30T05:52:50.748Z,21.4
2022-09-30T05:54:34.446Z,21.4
2022-09-30T05:56:18.166Z,21.4
2022-09-30T05:58:01.842Z,21.4
2022-09-30T05:59:45.581Z,21.4
2022-09-30T06:01:29.254Z,21.4
2022-09-30T06:03:12.949Z,21.4
2022-09-30T06:06:40.369Z,21.3
2022-09-30T06:08:24.056Z,21.4
2022-09-30T06:10:07.758Z,21.4
2022-09-30T06:11:51.480Z,21.3
2022-09-30T06:13:35.164Z,21.3
2022-09-30T06:15:18.873Z,21.3
2022-09-30T06:17:02.573Z,21.4
2022-09-30T06:18:46.295Z,21.4
2022-09-30T06:20:29.983Z,21.3
2022-09-30T06:22:13.745Z,21.3
2022-09-30T06:23:57.409Z,21.3
2022-09-30T06:25:41.090Z,21.3
2022-09-30T06:27:24.788Z,21.3
2022-09-30T06:29:08.494Z,21.3
2022-09-30T06:30:52.193Z,21.4
2022-09-30T06:32:35.886Z,21.3
2022-09-30T06:34:19.616Z,21.4
2022-09-30T06:36:03.298Z,21.3
2022-09-30T06:37:46.994Z,21.3
2022-09-30T06:39:30.704Z,21.3
2022-09-30T06:41:14.408Z,21.3
2022-09-30T06:42:58.113Z,21.3
2022-09-30T06:44:41.984Z,21.4
2022-09-30T06:46:25.562Z,21.3
2022-09-30T06:48:09.215Z,21.3
2022-09-30T06:49:52.920Z,21.3
2022-09-30T06:51:36.622Z,21.3
2022-09-30T06:53:20.321Z,21.3
2022-09-30T06:55:04.031Z,21.3
2022-09-30T06:56:47.725Z,21.3
2022-09-30T06:58:31.428Z,21.3
2022-09-30T07:00:15.142Z,21.3
2022-09-30T07:01:58.855Z,21.3
2022-09-30T07:03:42.538Z,21.3
2022-09-30T07:05:26.240Z,21.3
2022-09-30T07:07:09.947Z,21.3
2022-09-30T07:08:53.659Z,21.3
2022-09-30T07:10:37.351Z,21.3
2022-09-30T07:12:21.057Z,21.3
2022-09-30T07:14:04.760Z,21.3
2022-09-30T07:15:48.457Z,21.3
2022-09-30T07:17:32.163Z,21.3
2022-09-30T07:19:15.864Z,21.3
2022-09-30T07:20:59.565Z,21.3
2022-09-30T07:22:43.267Z,21.3
2022-09-30T07:24:26.972Z,21.3
2022-09-30T07:26:10.662Z,21.3
2022-09-30T07:27:54.362Z,21.3
2022-09-30T07:29:38.076Z,21.3
2022-09-30T07:31:21.789Z,21.3
2022-09-30T07:33:05.478Z,21.3
2022-09-30T07:34:49.177Z,21.3
2022-09-30T07:36:32.895Z,21.3
2022-09-30T07:38:16.587Z,21.3
2022-09-30T07:40:00.283Z,21.3
2022-09-30T07:41:43.990Z,21.3
2022-09-30T07:43:27.692Z,21.3
2022-09-30T07:45:11.390Z,21.3
2022-09-30T07:46:55.094Z,21.3
2022-09-30T07:48:38.799Z,21.3
2022-09-30T07:50:22.497Z,21.3
2022-09-30T07:52:06.202Z,21.3
2022-09-30T07:53:49.905Z,21.3
2022-09-30T07:55:33.604Z,21.3
2022-09-30T07:57:17.306Z,21.3
2022-09-30T07:59:01.012Z,21.3
2022-09-30T08:00:44.731Z,21.3
2022-09-30T08:02:28.423Z,21.3
2022-09-30T08:04:12.116Z,21.3
2022-09-30T08:05:55.869Z,21.3
2022-09-30T08:07:39.573Z,21.3
2022-09-30T08:09:23.247Z,21.3
2022-09-30T08:11:06.944Z,21.3
2022-09-30T08:12:50.641Z,21.3
2022-09-30T08:14:34.445Z,21.3
2022-09-30T08:16:18.039Z,21.3
2022-09-30T08:18:01.744Z,21.3
2022-09-30T08:19:45.436Z,21.3
2022-09-30T08:21:29.138Z,21.3
2022-09-30T08:23:12.849Z,21.3
2022-09-30T08:24:56.546Z,21.3
2022-09-30T08:26:40.269Z,21.3
2022-09-30T08:28:23.951Z,21.3
2022-09-30T08:30:07.657Z,21.3
2022-09-30T08:31:51.361Z,21.3
2022-09-30T08:33:35.122Z,21.3
2022-09-30T08:35:18.765Z,21.3
2022-09-30T08:37:02.472Z,21.3
2022-09-30T08:38:46.162Z,21.3
2022-09-30T08:40:29.877Z,21.2
2022-09-30T08:42:13.574Z,21.2
2022-09-30T08:43:57.269Z,21.2
2022-09-30T08:45:40.974Z,21.3
2022-09-30T08:47:24.678Z,21.3
2022-09-30T08:49:08.372Z,21.3
2022-09-30T08:50:52.079Z,21.3
2022-09-30T08:52:35.783Z,21.3
2022-09-30T08:54:19.482Z,21.3
2022-09-30T08:56:03.188Z,21.3
2022-09-30T08:57:46.887Z,21.3
2022-09-30T08:59:30.590Z,21.3
2022-09-30T09:01:14.297Z,21.4
2022-09-30T09:02:57.993Z,21.4
2022-09-30T09:04:41.702Z,21.4
2022-09-30T09:06:25.412Z,21.4
2022-09-30T09:08:09.097Z,21.4
2022-09-30T09:09:52.808Z,21.4
2022-09-30T09:11:36.511Z,21.4
2022-09-30T09:13:20.205Z,21.4
2022-09-30T09:15:03.935Z,21.4
2022-09-30T09:16:47.632Z,21.4
2022-09-30T09:18:31.359Z,21.4
2022-09-30T09:20:15.102Z,21.5
2022-09-30T09:21:58.722Z,21.5
2022-09-30T09:23:42.421Z,21.5
2022-09-30T09:25:26.128Z,21.5
2022-09-30T09:27:09.835Z,21.5
2022-09-30T09:28:53.534Z,21.5
2022-09-30T09:30:37.236Z,21.5
2022-09-30T09:32:20.935Z,21.5
2022-09-30T09:34:04.634Z,21.5
2022-09-30T09:35:48.339Z,21.5
2022-09-30T09:37:32.034Z,21.5
2022-09-30T09:39:15.743Z,21.5
2022-09-30T09:40:59.445Z,21.5
2022-09-30T09:42:43.153Z,21.5
2022-09-30T09:44:26.845Z,21.5
2022-09-30T09:46:10.545Z,21.5
2022-09-30T09:47:54.246Z,21.5
2022-09-30T09:49:37.951Z,21.5
2022-09-30T09:51:21.661Z,21.6
2022-09-30T09:53:05.358Z,21.6
2022-09-30T09:54:49.056Z,21.6
2022-09-30T09:56:32.754Z,21.6
2022-09-30T09:58:16.454Z,21.6
2022-09-30T10:00:00.161Z,21.6
2022-09-30T10:01:43.858Z,21.6
2022-09-30T10:03:27.562Z,21.6
2022-09-30T10:06:54.959Z,21.6
2022-09-30T10:08:38.664Z,21.6
2022-09-30T10:10:22.374Z,21.6
2022-09-30T10:12:06.073Z,21.6
2022-09-30T10:13:49.774Z,21.6
2022-09-30T10:15:33.471Z,21.6
2022-09-30T10:17:17.177Z,21.6
2022-09-30T10:19:00.881Z,21.6
2022-09-30T10:20:44.578Z,21.6
2022-09-30T10:22:28.282Z,21.6
2022-09-30T10:24:12.000Z,21.6
2022-09-30T10:25:55.673Z,21.7
2022-09-30T10:27:39.442Z,21.7
2022-09-30T10:29:23.086Z,21.7
2022-09-30T10:31:06.786Z,21.7
2022-09-30T10:32:50.489Z,21.7
2022-09-30T10:34:34.194Z,21.7
2022-09-30T10:36:17.889Z,21.7
2022-09-30T10:38:01.600Z,21.7
2022-09-30T10:39:45.295Z,21.7
2022-09-30T10:41:29.000Z,21.7
2022-09-30T10:43:12.702Z,21.7
2022-09-30T10:44:56.395Z,21.7
2022-09-30T10:46:40.098Z,21.8
2022-09-30T10:48:23.803Z,21.8
2022-09-30T10:50:07.511Z,21.8
2022-09-30T10:51:51.206Z,21.8
2022-09-30T10:53:34.910Z,21.8
2022-09-30T10:55:18.606Z,21.8
2022-09-30T10:57:02.308Z,21.8
2022-09-30T10:58:46.070Z,21.8
2022-09-30T11:00:29.706Z,21.9
2022-09-30T11:02:13.414Z,21.9
2022-09-30T11:03:57.122Z,21.9
2022-09-30T11:05:40.816Z,21.9
2022-09-30T11:07:24.534Z,21.9
2022-09-30T11:09:08.224Z,21.9
2022-09-30T11:10:51.942Z,21.9
2022-09-30T11:12:35.627Z,21.9
2022-09-30T11:14:19.332Z,21.9
2022-09-30T11:16:03.028Z,21.9
2022-09-30T11:17:46.734Z,21.9
2022-09-30T11:19:30.434Z,21.9
2022-09-30T11:21:14.140Z,21.9
2022-09-30T11:22:57.843Z,22
2022-09-30T11:24:41.538Z,22
2022-09-30T11:26:25.252Z,22
2022-09-30T11:28:08.944Z,22
2022-09-30T11:29:52.640Z,22
2022-09-30T11:31:36.395Z,22
2022-09-30T11:33:20.044Z,22
2022-09-30T11:35:03.742Z,22
2022-09-30T11:36:47.449Z,22
2022-09-30T11:38:31.150Z,22
2022-09-30T11:40:14.856Z,22
2022-09-30T11:41:58.565Z,22
2022-09-30T11:43:42.260Z,22
2022-09-30T11:45:25.962Z,22
2022-09-30T11:47:09.676Z,22
2022-09-30T11:48:53.365Z,22
2022-09-30T11:50:37.068Z,22.1
2022-09-30T11:52:20.770Z,22.1
2022-09-30T11:54:04.460Z,22.1
2022-09-30T11:55:48.168Z,22.1
2022-09-30T11:57:31.877Z,22.1
2022-09-30T11:59:15.568Z,22.1
2022-09-30T12:00:59.268Z,22.1
2022-09-30T12:02:42.975Z,22.1
2022-09-30T12:04:26.674Z,22.1
2022-09-30T12:06:10.371Z,22.1
2022-09-30T12:07:54.079Z,22.1
2022-09-30T12:09:37.844Z,22.1
2022-09-30T12:11:21.473Z,22.1
2022-09-30T12:13:05.174Z,22.2
2022-09-30T12:14:48.880Z,22.2
2022-09-30T12:16:32.581Z,22.2
2022-09-30T12:18:16.277Z,22.2
2022-09-30T12:19:59.983Z,22.2
2022-09-30T12:21:43.689Z,22.2
2022-09-30T12:23:27.393Z,22.2
2022-09-30T12:25:11.086Z,22.2
2022-09-30T12:26:54.790Z,22.2
2022-09-30T12:28:38.485Z,22.2
2022-09-30T12:30:22.192Z,22.2
2022-09-30T12:32:05.894Z,22.2
2022-09-30T12:33:49.587Z,22.2
2022-09-30T12:35:33.293Z,22.2
2022-09-30T12:37:16.995Z,22.2
2022-09-30T12:39:00.698Z,22.3
2022-09-30T12:40:44.399Z,22.3
2022-09-30T12:42:28.106Z,22.3
2022-09-30T12:44:11.804Z,22.3
2022-09-30T12:45:55.508Z,22.3
2022-09-30T12:47:39.206Z,22.3
2022-09-30T12:49:22.921Z,22.3
2022-09-30T12:51:06.618Z,22.3
2022-09-30T12:52:50.309Z,22.3
2022-09-30T12:54:34.017Z,22.3
2022-09-30T12:56:17.716Z,22.3
2022-09-30T12:58:01.417Z,22.2
2022-09-30T12:59:45.123Z,22.2
2022-09-30T13:01:28.827Z,22.2
2022-09-30T13:03:12.535Z,22.2
2022-09-30T13:04:56.246Z,22.2
2022-09-30T13:06:39.935Z,22.1
2022-09-30T13:08:23.633Z,22.1
2022-09-30T13:10:07.339Z,22.1
2022-09-30T13:11:51.031Z,22.1
2022-09-30T13:13:34.766Z,22.1
2022-09-30T13:15:18.442Z,22.1
2022-09-30T13:17:02.138Z,22.1
2022-09-30T13:18:45.836Z,22
2022-09-30T13:20:29.544Z,22
2022-09-30T13:22:13.247Z,22
2022-09-30T13:23:56.954Z,22
2022-09-30T13:25:40.646Z,22
2022-09-30T13:27:24.353Z,22
2022-09-30T13:29:08.055Z,22
2022-09-30T13:30:51.754Z,22
2022-09-30T13:32:35.449Z,22
2022-09-30T13:34:19.156Z,22
2022-09-30T13:36:02.850Z,22
2022-09-30T13:37:46.555Z,22
2022-09-30T13:39:30.265Z,22
2022-09-30T13:41:13.962Z,22
2022-09-30T13:42:57.673Z,22
2022-09-30T13:44:41.387Z,22
2022-09-30T13:46:25.071Z,22
2022-09-30T13:48:08.798Z,22
2022-09-30T13:49:52.475Z,22
2022-09-30T13:51:36.172Z,22
2022-09-30T13:53:19.876Z,22
2022-09-30T13:55:03.572Z,22
2022-09-30T13:56:47.279Z,22
2022-09-30T13:58:30.976Z,22
2022-09-30T14:00:14.676Z,22
2022-09-30T14:01:58.395Z,22
2022-09-30T14:03:42.090Z,22
2022-09-30T14:05:25.780Z,22
2022-09-30T14:07:09.483Z,22
2022-09-30T14:08:53.195Z,22.1
2022-09-30T14:10:36.895Z,22.1
2022-09-30T14:12:20.598Z,22.1
2022-09-30T14:14:04.291Z,22.1
2022-09-30T14:15:48.010Z,22.2
2022-09-30T14:17:31.699Z,22.2
2022-09-30T14:19:15.396Z,22.1
2022-09-30T14:20:59.100Z,22.1
2022-09-30T14:22:42.806Z,22.1
2022-09-30T14:24:26.500Z,22.1
2022-09-30T14:26:10.221Z,22.1
2022-09-30T14:27:53.911Z,22.1
2022-09-30T14:29:37.606Z,22.1
2022-09-30T14:31:21.310Z,22.1
2022-09-30T14:33:05.032Z,22.1
2022-09-30T14:34:48.725Z,22.1
2022-09-30T14:36:32.417Z,22.1
2022-09-30T14:38:16.122Z,22.1
2022-09-30T14:39:59.819Z,22.2
2022-09-30T14:41:43.525Z,22.2
2022-09-30T14:43:27.223Z,22.2
2022-09-30T14:45:10.948Z,22.2
2022-09-30T14:46:54.629Z,22.3
2022-09-30T14:48:38.329Z,22.3
2022-09-30T14:50:22.103Z,22.3
2022-09-30T14:52:05.735Z,22.4
2022-09-30T14:53:49.430Z,22.4
2022-09-30T14:55:33.137Z,22.4
2022-09-30T14:57:16.839Z,22.4
2022-09-30T14:59:00.544Z,22.5
2022-09-30T15:00:44.252Z,22.5
2022-09-30T15:02:27.975Z,22.5
2022-09-30T15:04:11.651Z,22.5
2022-09-30T15:05:55.360Z,22.5
2022-09-30T15:07:39.051Z,22.6
2022-09-30T15:09:22.773Z,22.6
2022-09-30T15:11:06.467Z,22.6
2022-09-30T15:12:50.155Z,22.6
2022-09-30T15:14:33.858Z,22.6
2022-09-30T15:16:17.585Z,22.6
2022-09-30T15:18:01.269Z,22.6
2022-09-30T15:19:44.959Z,22.6
2022-09-30T15:21:28.674Z,22.7
2022-09-30T15:23:12.362Z,22.6
2022-09-30T15:24:56.108Z,22.6
2022-09-30T15:26:39.772Z,22.6
2022-09-30T15:28:23.473Z,22.6
2022-09-30T15:30:07.181Z,22.7
2022-09-30T15:31:50.874Z,22.7
2022-09-30T15:33:34.578Z,22.7
2022-09-30T15:35:18.286Z,22.7
2022-09-30T15:37:01.984Z,22.7
2022-09-30T15:38:45.687Z,22.7
2022-09-30T15:40:29.407Z,22.7
2022-09-30T15:42:13.091Z,22.7
2022-09-30T15:43:56.793Z,22.7
2022-09-30T15:45:40.601Z,22.8
2022-09-30T15:47:24.262Z,22.7
2022-09-30T15:49:07.925Z,22.7
2022-09-30T15:50:51.624Z,22.7
2022-09-30T15:52:35.312Z,22.7
2022-09-30T15:54:19.014Z,22.7
2022-09-30T15:56:02.730Z,22.6
2022-09-30T15:57:46.419Z,22.6
2022-09-30T15:59:30.108Z,22.6
2022-09-30T16:01:13.814Z,22.5
2022-09-30T16:02:57.513Z,22.5
2022-09-30T16:04:41.231Z,22.5
2022-09-30T16:06:24.939Z,22.5
2022-09-30T16:08:08.618Z,22.5
2022-09-30T16:09:52.320Z,22.5
2022-09-30T16:11:36.026Z,22.4
2022-09-30T16:13:19.723Z,22.4
2022-09-30T16:15:03.421Z,22.4
2022-09-30T16:16:47.126Z,22.4
2022-09-30T16:18:30.833Z,22.4
2022-09-30T16:20:14.527Z,22.5
2022-09-30T16:21:58.234Z,22.5
2022-09-30T16:23:41.934Z,22.5
2022-09-30T16:25:25.634Z,22.6
2022-09-30T16:27:09.339Z,22.6
2022-09-30T16:28:53.045Z,22.6
2022-09-30T16:30:36.745Z,22.6
2022-09-30T16:32:20.447Z,22.6
2022-09-30T16:34:04.145Z,22.6
2022-09-30T16:35:47.888Z,22.6
2022-09-30T16:37:31.554Z,22.6
2022-09-30T16:39:15.245Z,22.5
2022-09-30T16:40:59.068Z,22.5
2022-09-30T16:42:42.653Z,22.5
2022-09-30T16:44:26.354Z,22.5
2022-09-30T16:46:10.058Z,22.5
2022-09-30T16:47:53.764Z,22.5
2022-09-30T16:49:37.464Z,22.4
2022-09-30T16:51:21.168Z,22.4
2022-09-30T16:53:04.867Z,22.4
2022-09-30T16:56:32.274Z,22.4
2022-09-30T16:58:15.964Z,22.4
2022-09-30T16:59:59.668Z,22.3
2022-09-30T17:01:43.443Z,22.3
2022-09-30T17:03:27.066Z,22.3
2022-09-30T17:05:10.770Z,22.3
2022-09-30T17:06:54.480Z,22.3
2022-09-30T17:08:38.172Z,22.3
2022-09-30T17:10:21.878Z,22.2
2022-09-30T17:12:05.579Z,22.2
2022-09-30T17:13:49.278Z,22.2
2022-09-30T17:15:32.978Z,22.2
2022-09-30T17:17:16.692Z,22.2
2022-09-30T17:19:00.385Z,22.2
2022-09-30T17:20:44.091Z,22.2
2022-09-30T17:22:27.793Z,22.2
2022-09-30T17:24:11.496Z,22.3
2022-09-30T17:25:55.199Z,22.3
2022-09-30T17:27:38.889Z,22.3
2022-09-30T17:29:22.599Z,22.3
2022-09-30T17:31:06.300Z,22.3
2022-09-30T17:32:49.995Z,22.3
2022-09-30T17:34:33.709Z,22.3
2022-09-30T17:36:17.409Z,22.3
2022-09-30T17:38:01.107Z,22.3
2022-09-30T17:39:44.806Z,22.3
2022-09-30T17:41:28.513Z,22.3
2022-09-30T17:43:12.210Z,22.3
2022-09-30T17:44:55.920Z,22.3
2022-09-30T17:46:39.614Z,22.3
2022-09-30T17:48:23.369Z,22.3
2022-09-30T17:50:07.018Z,22.3
2022-09-30T17:51:50.718Z,22.3
2022-09-30T17:53:34.436Z,22.3
2022-09-30T17:55:18.123Z,22.4
2022-09-30T17:57:01.819Z,22.4
2022-09-30T17:58:45.527Z,22.4
2022-09-30T18:00:29.230Z,22.3
2022-09-30T18:02:12.928Z,22.3
2022-09-30T18:03:56.632Z,22.3
2022-09-30T18:05:40.332Z,22.3
2022-09-30T18:07:24.037Z,22.4
2022-09-30T18:09:07.736Z,22.4
2022-09-30T18:10:51.439Z,22.4
2022-09-30T18:12:35.144Z,22.4
2022-09-30T18:14:18.865Z,22.4
2022-09-30T18:16:02.546Z,22.4
2022-09-30T18:17:46.243Z,22.4
2022-09-30T18:19:29.984Z,22.4
2022-09-30T18:21:13.649Z,22.4
2022-09-30T18:22:57.359Z,22.3
2022-09-30T18:24:41.052Z,22.3
2022-09-30T18:26:24.758Z,22.3
2022-09-30T18:28:08.464Z,22.3
2022-09-30T18:29:52.168Z,22.3
2022-09-30T18:31:35.873Z,22.3
2022-09-30T18:33:19.565Z,22.3
2022-09-30T18:35:03.284Z,22.3
2022-09-30T18:36:46.970Z,22.3
2022-09-30T18:38:30.675Z,22.2
2022-09-30T18:40:14.366Z,22.2
2022-09-30T18:41:58.069Z,22.2
2022-09-30T18:43:41.776Z,22.2
2022-09-30T18:45:25.471Z,22.2
2022-09-30T18:47:09.176Z,22.2
2022-09-30T18:48:52.872Z,22.2
2022-09-30T18:50:36.580Z,22.2
2022-09-30T18:52:20.288Z,22.2
2022-09-30T18:54:03.982Z,22.1
2022-09-30T18:55:47.704Z,22.2
2022-09-30T18:57:31.406Z,22.1
2022-09-30T18:59:15.085Z,22.2
2022-09-30T19:00:58.791Z,22.1
2022-09-30T19:02:42.496Z,22.1
2022-09-30T19:04:26.184Z,22.1
2022-09-30T19:06:09.897Z,22.1
2022-09-30T19:07:53.604Z,22.1
2022-09-30T19:09:37.323Z,22.1
2022-09-30T19:11:21.015Z,22.1
2022-09-30T19:13:04.704Z,22.1
2022-09-30T19:14:48.404Z,22.1
2022-09-30T19:16:32.111Z,22.1
2022-09-30T19:18:15.803Z,22.1
2022-09-30T19:19:59.509Z,22.1
2022-09-30T19:21:43.212Z,22.1
2022-09-30T19:23:26.909Z,22.1
2022-09-30T19:25:10.615Z,22.1
2022-09-30T19:26:54.313Z,22.1
2022-09-30T19:28:38.018Z,22.1
2022-09-30T19:30:21.730Z,22.1
2022-09-30T19:32:05.420Z,22.1
2022-09-30T19:33:49.249Z,22.1
2022-09-30T19:35:32.829Z,22
2022-09-30T19:37:16.641Z,22
2022-09-30T19:39:00.406Z,22
2022-09-30T19:40:43.935Z,22
2022-09-30T19:42:27.622Z,22
2022-09-30T19:44:11.334Z,22
2022-09-30T19:45:55.041Z,22
2022-09-30T19:47:38.736Z,22
2022-09-30T19:49:22.445Z,22
2022-09-30T19:51:06.145Z,22
2022-09-30T19:52:49.984Z,22
2022-09-30T19:54:33.544Z,22
2022-09-30T19:56:17.356Z,22
2022-09-30T19:58:00.948Z,22
2022-09-30T19:59:44.704Z,22
2022-09-30T20:01:28.349Z,22
2022-09-30T20:03:12.053Z,22
2022-09-30T20:04:55.782Z,22
2022-09-30T20:06:39.449Z,22
2022-09-30T20:08:23.157Z,22
2022-09-30T20:10:06.861Z,22
2022-09-30T20:11:50.558Z,22
2022-09-30T20:13:34.264Z,22
2022-09-30T20:15:17.971Z,22
2022-09-30T20:17:01.669Z,22
2022-09-30T20:18:45.368Z,22
2022-09-30T20:20:29.070Z,22
2022-09-30T20:22:12.774Z,22
2022-09-30T20:23:56.482Z,21.9
2022-09-30T20:25:40.186Z,21.9
2022-09-30T20:29:07.581Z,21.9
2022-09-30T20:30:51.278Z,21.9
2022-09-30T20:32:34.986Z,22
2022-09-30T20:34:18.696Z,21.9
2022-09-30T20:36:02.387Z,22
2022-09-30T20:37:46.091Z,22
2022-09-30T20:39:29.795Z,22
2022-09-30T20:41:13.498Z,22
2022-09-30T20:42:57.198Z,22
2022-09-30T20:44:40.897Z,22
2022-09-30T20:46:24.597Z,22
2022-09-30T20:48:08.307Z,22
2022-09-30T20:49:51.995Z,22
2022-09-30T20:51:35.705Z,22
2022-09-30T20:53:19.403Z,22
2022-09-30T20:55:03.115Z,22
2022-09-30T20:56:46.814Z,22
2022-09-30T20:58:30.519Z,22
2022-09-30T21:00:14.215Z,22
2022-09-30T21:01:57.914Z,22
2022-09-30T21:03:41.619Z,22
2022-09-30T21:05:25.317Z,22
2022-09-30T21:07:09.033Z,22
2022-09-30T21:08:52.734Z,22
2022-09-30T21:10:36.424Z,21.9
2022-09-30T21:12:20.128Z,22
2022-09-30T21:14:03.821Z,22
2022-09-30T21:15:47.531Z,21.9
2022-09-30T21:17:31.235Z,21.9
2022-09-30T21:19:14.967Z,21.9
2022-09-30T21:20:58.639Z,21.9
2022-09-30T21:22:42.341Z,21.9
2022-09-30T21:24:26.039Z,21.9
2022-09-30T21:26:09.741Z,21.9
2022-09-30T21:27:53.450Z,21.9
2022-09-30T21:29:37.139Z,21.9
2022-09-30T21:31:20.843Z,21.9
2022-09-30T21:33:04.545Z,21.9
2022-09-30T21:34:48.248Z,21.9
2022-09-30T21:36:31.959Z,21.9
2022-09-30T21:38:15.655Z,21.9
2022-09-30T21:39:59.363Z,21.9
2022-09-30T21:41:43.068Z,21.9
2022-09-30T21:43:26.765Z,21.9
2022-09-30T21:45:10.470Z,21.9
2022-09-30T21:46:54.189Z,21.9
2022-09-30T21:48:37.868Z,21.9
2022-09-30T21:50:21.573Z,21.9
2022-09-30T21:52:05.276Z,21.9
2022-09-30T21:53:48.975Z,21.9
2022-09-30T21:55:32.677Z,21.9
2022-09-30T21:57:16.379Z,21.9
2022-09-30T21:59:00.088Z,21.9
2022-09-30T22:00:43.786Z,21.9
2022-09-30T22:02:27.485Z,21.8
2022-09-30T22:04:11.189Z,21.8
2022-09-30T22:05:54.894Z,21.8
2022-09-30T22:07:38.273Z,21.8
2022-09-30T22:09:21.977Z,21.8
2022-09-30T22:11:05.687Z,21.8
2022-09-30T22:12:49.413Z,21.8
2022-09-30T22:14:33.097Z,21.8
2022-09-30T22:16:16.791Z,21.8
2022-09-30T22:18:00.490Z,21.8
2022-09-30T22:19:44.197Z,21.8
2022-09-30T22:21:27.953Z,21.8
2022-09-30T22:23:11.603Z,21.8
2022-09-30T22:24:55.304Z,21.8
2022-09-30T22:26:39.002Z,21.8
2022-09-30T22:28:22.708Z,21.8
2022-09-30T22:30:06.410Z,21.8
2022-09-30T22:31:50.103Z,21.8
2022-09-30T22:33:33.808Z,21.8
2022-09-30T22:35:17.546Z,21.8
2022-09-30T22:37:01.211Z,21.8
2022-09-30T22:38:44.923Z,21.8
2022-09-30T22:40:28.618Z,21.8
2022-09-30T22:42:12.316Z,21.8
2022-09-30T22:43:56.021Z,21.8
2022-09-30T22:45:39.727Z,21.8
2022-09-30T22:47:23.432Z,21.8
2022-09-30T22:49:07.137Z,21.8
2022-09-30T22:50:50.845Z,21.8
2022-09-30T22:52:34.533Z,21.8
2022-09-30T22:54:18.255Z,21.8
2022-09-30T22:56:01.934Z,21.8
2022-09-30T22:57:45.637Z,21.8
2022-09-30T22:59:29.342Z,21.8
2022-09-30T23:01:13.054Z,21.8
2022-09-30T23:02:56.740Z,21.8
2022-09-30T23:04:40.448Z,21.8
2022-09-30T23:06:24.146Z,21.8
2022-09-30T23:08:07.855Z,21.8
2022-09-30T23:09:51.549Z,21.8
2022-09-30T23:11:35.257Z,21.8
2022-09-30T23:13:18.961Z,21.8
2022-09-30T23:15:02.664Z,21.8
2022-09-30T23:16:46.362Z,21.8
2022-09-30T23:18:30.072Z,21.8